LQSALDSP

Guest
Details From LQSA - Sarajevo
To LDSP - SPLIT
Flight Number -
Tags decoded
Created
Modified
Stats Distance 90 nm / 167 km
Max Altitude 0 ft / 0 m
Waypoints 4
Social Downloads 1
Likes 0
Share VATSIM

Download

Looking for another format? Having issues loading an existing format? Contact us
Advertisement - Login to hide

Notes

Requested: LQSA VRANA Y88 KENEM LDSP

Route

LQSA VRANA KENEM LDSP

ID Type Via Altitude Latitude Longitude Leg Dist Tot Dist Heading (true) Name
O LQSA APT - 0 ft / 0 m 43.82460˚ 18.33150˚ - 0 nm - Sarajevo
VRANA FIX - 0 ft / 0 m 43.75361˚ 17.53778˚ 34 nm 34 nm 263° / 263° -
KENEM FIX - 0 ft / 0 m 43.63333˚ 16.94667˚ 26 nm 61 nm 254° / 254° -
O LDSP APT - 0 ft / 0 m 43.53903˚ 16.29811˚ 28 nm 90 nm 259° / 258° SPLIT

Altitude Profile

Advertisement - Login to hide

LQSA

Details ICAO LQSA (SJJ)
Name Sarajevo
Region Bosnia and Herzegovinia
Timezone Europe/Sarajevo (UTC+2.0)
Stats Elevation 1,708 ft / 521 m (AMSL)
Location 43.824597° 18.331500°
Runways 1
Magnetic Variation 4.270° E

METAR

LQSA 260430Z VRB01KT 7000 FEW010 OVC020 14/14 Q1021 NOSIG

Decode

TAF

Not found

Departure Runways

ID Width Length Bearing (true) Bearing (mag) Surface Threshold Offset Overrun Length
12 150 ft / 46 m 8,519 ft / 2,597 m 117.41° 113.14° Asphalt 333 ft / 102 m 0 ft / 0 m
30 150 ft / 46 m 8,519 ft / 2,597 m 297.43° 293.16° Asphalt 666 ft / 203 m 0 ft / 0 m

LDSP

Details ICAO LDSP (SPU)
Name SPLIT
Region Croatia
Timezone Europe/Zagreb (UTC+2.0)
Stats Elevation 79 ft / 24 m (AMSL)
Location 43.539026° 16.298112°
Runways 1
Magnetic Variation 3.885° E

METAR

LDSP 260430Z 36003KT 300V040 CAVOK 22/14 Q1016 NOSIG

Decode

TAF

TAF LDSP 252325Z 2600/2700 35005KT CAVOK TX28/2613Z TN19/2603Z BECMG 2610/2611 23009KT PROB30 TEMPO 2611/2614 TS FEW050CB BECMG 2615/2617 VRB02KT

Decode

Destination Runways

ID Width Length Bearing (true) Bearing (mag) Surface Threshold Offset Overrun Length
05 148 ft / 45 m 8,357 ft / 2,547 m 52.48° 48.60° Asphalt 0 ft / 0 m 76 ft / 23 m
23 148 ft / 45 m 8,357 ft / 2,547 m 232.50° 228.62° Asphalt 525 ft / 160 m 820 ft / 250 m

Approach Navaids

Runway Type Ident Frequency Range Bearing (true) Bearing (mag) Slope Elevation
05 Localiser IST 110.50 MHz 25 nm / 46 km 52.57° 48.69° - 69 ft / 21 m (AMSL)
05 Glidescope IST 110.50 MHz 25 nm / 46 km 52.57° 48.69° 3.00° 52 ft / 16 m (AMSL)

Popular Alternatives